Time;durP1;ratioP1;P1;durP2;ratioP2;P2;SDS_P1;SDS_P2;PMS_P1;PMS_P2;Temp;Humidity;BMP_temperature;BMP_pressure;BME280_temperature;BME280_humidity;BME280_pressure;Samples;Min_cycle;Max_cycle;Signal;HPM_P1;HPM_P2
2022/10/03 00:01:48;;;;;;;50.53;5.00;;;;;;;11.95;100.00;101793.22;5030757;28;20037;-74
2022/10/03 00:04:51;;;;;;;32.47;4.05;;;;;;;12.00;100.00;101800.06;5090216;28;20020;-76
2022/10/03 00:07:42;;;;;;;36.40;5.07;;;;;;;11.87;100.00;101797.69;5092123;28;20020;-76
2022/10/03 00:10:37;;;;;;;31.10;4.38;;;;;;;11.92;100.00;101800.78;5054542;28;20051;-76
2022/10/03 00:13:16;;;;;;;39.83;4.65;;;;;;;11.89;100.00;101798.38;5095202;28;20510;-75
2022/10/03 00:16:02;;;;;;;40.70;4.32;;;;;;;11.79;100.00;101808.34;5080259;28;20028;-75
2022/10/03 00:18:44;;;;;;;49.75;5.28;;;;;;;11.92;100.00;101803.50;5080875;28;20028;-74
2022/10/03 00:21:45;;;;;;;45.47;5.63;;;;;;;11.99;100.00;101812.78;5063455;28;20042;-74
2022/10/03 00:24:51;;;;;;;34.95;4.43;;;;;;;11.91;100.00;101812.66;5060816;28;20035;-74
2022/10/03 00:27:31;;;;;;;37.10;3.92;;;;;;;11.86;100.00;101814.94;5077558;28;20043;-73
2022/10/03 00:30:12;;;;;;;30.88;3.70;;;;;;;12.07;100.00;101812.94;5058028;28;20120;-74
2022/10/03 00:33:09;;;;;;;52.00;5.53;;;;;;;12.09;100.00;101813.63;5070797;28;20070;-74
2022/10/03 00:36:01;;;;;;;44.00;4.00;;;;;;;12.10;100.00;101818.06;5091497;28;20055;-74
2022/10/03 00:38:29;;;;;;;55.22;4.97;;;;;;;11.95;100.00;101814.09;5070771;28;20096;-74
2022/10/03 00:41:38;;;;;;;31.27;4.00;;;;;;;11.95;100.00;101808.66;5083239;28;20081;-74
2022/10/03 00:44:25;;;;;;;31.58;4.38;;;;;;;11.98;100.00;101812.94;5072533;28;20021;-74
2022/10/03 00:47:31;;;;;;;32.63;4.90;;;;;;;12.03;100.00;101816.94;5079664;28;20062;-74
2022/10/03 00:50:18;;;;;;;40.97;5.28;;;;;;;11.98;100.00;101819.22;5078739;28;20068;-75
2022/10/03 00:52:56;;;;;;;38.78;5.72;;;;;;;12.01;100.00;101818.94;5085819;28;20032;-74
2022/10/03 00:55:49;;;;;;;28.73;4.30;;;;;;;11.99;100.00;101820.06;5080280;28;20439;-75
2022/10/03 00:58:47;;;;;;;41.70;5.18;;;;;;;12.06;100.00;101816.66;5089123;28;20042;-75
2022/10/03 01:01:27;;;;;;;30.98;4.50;;;;;;;11.92;100.00;101819.78;5068727;28;20024;-74
2022/10/03 01:04:06;;;;;;;29.00;3.83;;;;;;;11.95;100.00;101814.09;5092992;28;20030;-74
2022/10/03 01:07:15;;;;;;;36.28;4.55;;;;;;;11.87;100.00;101824.81;5083620;28;20491;-75
2022/10/03 01:10:08;;;;;;;32.65;4.28;;;;;;;11.95;100.00;101824.94;5071623;28;20523;-75
2022/10/03 01:12:48;;;;;;;46.03;5.18;;;;;;;11.92;100.00;101825.22;5097858;28;20059;-74
2022/10/03 01:15:38;;;;;;;41.90;4.80;;;;;;;12.08;100.00;101832.78;5082842;28;20468;-74
2022/10/03 01:18:07;;;;;;;24.08;4.40;;;;;;;12.06;100.00;101834.78;5081025;28;20039;-74
2022/10/03 01:20:51;;;;;;;52.03;5.53;;;;;;;11.94;100.00;101834.09;5088138;28;20027;-74
2022/10/03 01:23:19;;;;;;;39.78;5.32;;;;;;;11.94;100.00;101834.94;5074619;28;20060;-74
2022/10/03 01:26:05;;;;;;;31.83;5.43;;;;;;;11.98;100.00;101840.94;5065225;28;20089;-74
2022/10/03 01:32:13;;;;;;;38.72;5.13;;;;;;;12.28;100.00;101841.75;5095994;28;20028;-74
2022/10/03 01:34:47;;;;;;;42.88;5.22;;;;;;;12.17;100.00;101846.34;5064966;28;20031;-74
2022/10/03 01:37:32;;;;;;;36.92;4.45;;;;;;;12.01;100.00;101840.66;5073748;28;20542;-74
2022/10/03 01:40:15;;;;;;;32.33;4.97;;;;;;;12.03;100.00;101841.34;5077088;28;20031;-74
2022/10/03 01:42:58;;;;;;;32.72;4.80;;;;;;;12.07;100.00;101844.66;5087974;28;20055;-73
2022/10/03 01:45:45;;;;;;;48.78;4.43;;;;;;;11.97;100.00;101854.66;5072903;28;20036;-74
2022/10/03 01:48:20;;;;;;;40.35;5.00;;;;;;;12.01;100.00;101856.94;5074725;28;20020;-74
2022/10/03 01:51:31;;;;;;;33.95;4.80;;;;;;;11.93;100.00;101859.50;5086680;28;20024;-74
2022/10/03 01:54:19;;;;;;;46.90;5.35;;;;;;;11.86;100.00;101859.22;5045540;28;20061;-74
2022/10/03 01:57:03;;;;;;;37.38;4.93;;;;;;;11.77;100.00;101870.03;5040812;28;20028;-74
2022/10/03 01:59:38;;;;;;;30.75;3.85;;;;;;;11.76;100.00;101862.91;5069261;28;20035;-75
2022/10/03 02:02:13;;;;;;;41.22;5.18;;;;;;;11.74;100.00;101870.34;5096592;28;20031;-75
2022/10/03 02:04:50;;;;;;;41.53;4.43;;;;;;;11.71;100.00;101878.75;5083504;28;20027;-74
2022/10/03 02:07:40;;;;;;;41.53;4.20;;;;;;;11.83;100.00;101875.78;5076013;28;20038;-74
2022/10/03 02:10:18;;;;;;;34.38;4.25;;;;;;;11.53;100.00;101887.56;5082090;28;20023;-74
2022/10/03 02:13:08;;;;;;;41.95;4.97;;;;;;;11.53;100.00;101879.41;5074760;28;20034;-74
2022/10/03 02:16:03;;;;;;;29.60;4.60;;;;;;;11.70;100.00;101886.03;5087726;28;20031;-74
2022/10/03 02:18:49;;;;;;;28.85;3.63;;;;;;;11.83;100.00;101880.34;5075173;28;20020;-74
2022/10/03 02:24:23;;;;;;;30.45;4.22;;;;;;;11.66;100.00;101885.44;5064366;28;20049;-73
2022/10/03 02:27:16;;;;;;;26.92;3.55;;;;;;;11.49;100.00;101883.41;5049790;28;20028;-73
2022/10/03 02:30:03;;;;;;;31.92;5.57;;;;;;;11.49;100.00;101888.00;5058361;28;20028;-73
2022/10/03 02:33:03;;;;;;;36.05;4.57;;;;;;;11.48;100.00;101898.00;5064360;28;20024;-73
2022/10/03 02:35:58;;;;;;;39.75;4.38;;;;;;;11.42;100.00;101898.53;5072050;28;20036;-73
2022/10/03 02:38:29;;;;;;;22.35;3.85;;;;;;;11.39;100.00;101896.94;5032378;28;20063;-73
2022/10/03 02:41:17;;;;;;;67.45;4.95;;;;;;;11.30;100.00;101899.63;5052268;28;20115;-73
2022/10/03 02:44:13;;;;;;;41.08;3.90;;;;;;;11.41;100.00;101907.69;5046876;28;20488;-73
2022/10/03 02:47:04;;;;;;;36.60;4.50;;;;;;;11.45;100.00;101911.81;5067253;28;20032;-73
2022/10/03 02:49:44;;;;;;;51.80;4.78;;;;;;;11.34;100.00;101906.47;5050839;28;20032;-73
2022/10/03 02:52:21;;;;;;;35.08;4.85;;;;;;;11.38;100.00;101902.50;5070145;28;20020;-73
2022/10/03 02:55:05;;;;;;;39.92;4.28;;;;;;;11.28;100.00;101910.63;5055401;28;20562;-73
2022/10/03 02:58:29;;;;;;;29.27;4.00;;;;;;;11.32;100.00;101903.06;5053817;28;20025;-73
2022/10/03 03:01:28;;;;;;;30.98;4.20;;;;;;;11.33;100.00;101910.19;5023070;28;20116;-73
2022/10/03 03:04:36;;;;;;;38.55;4.10;;;;;;;11.11;100.00;101917.53;5008899;28;20044;-73
2022/10/03 03:07:19;;;;;;;34.25;3.80;;;;;;;11.22;100.00;101915.75;5069290;28;20079;-73
2022/10/03 03:10:23;;;;;;;32.25;3.80;;;;;;;11.21;100.00;101914.00;5051217;28;20035;-73
2022/10/03 03:13:40;;;;;;;40.60;4.10;;;;;;;11.11;100.00;101912.13;5068552;28;20495;-73
2022/10/03 03:16:42;;;;;;;27.00;3.75;;;;;;;11.13;100.00;101920.97;5070815;28;20078;-73
2022/10/03 03:19:42;;;;;;;49.05;5.97;;;;;;;11.13;100.00;101926.38;5058089;28;20063;-74
2022/10/03 03:22:16;;;;;;;38.85;5.18;;;;;;;11.07;100.00;101926.94;5065960;28;20041;-73
2022/10/03 03:24:48;;;;;;;45.97;5.18;;;;;;;11.13;100.00;101926.38;5062152;28;20362;-73
2022/10/03 03:27:35;;;;;;;40.17;4.30;;;;;;;11.08;100.00;101934.09;5070202;28;20032;-73
2022/10/03 03:30:07;;;;;;;39.30;4.82;;;;;;;11.09;100.00;101930.38;5058819;28;20032;-73
2022/10/03 03:32:55;;;;;;;37.20;4.22;;;;;;;11.02;100.00;101934.63;5070759;28;20032;-73
2022/10/03 03:35:34;;;;;;;42.72;3.80;;;;;;;11.12;100.00;101940.94;5064601;28;20024;-73
2022/10/03 03:38:08;;;;;;;37.17;4.75;;;;;;;11.00;100.00;101931.19;5055244;28;20028;-73
2022/10/03 03:40:41;;;;;;;35.47;3.72;;;;;;;11.01;100.00;101932.88;5070076;28;20063;-73
2022/10/03 03:43:36;;;;;;;42.92;6.15;;;;;;;10.99;100.00;101940.31;5070520;28;20053;-73
2022/10/03 03:46:13;;;;;;;24.83;3.58;;;;;;;11.03;100.00;101939.06;5058396;28;20127;-73
2022/10/03 03:49:07;;;;;;;33.70;4.32;;;;;;;11.02;100.00;101940.06;5067088;28;20415;-73
2022/10/03 03:51:48;;;;;;;31.35;4.25;;;;;;;11.06;100.00;101944.19;5071043;28;20419;-73
2022/10/03 03:54:36;;;;;;;37.97;4.32;;;;;;;10.95;100.00;101938.84;5050972;28;20017;-73
2022/10/03 03:57:33;;;;;;;24.83;3.67;;;;;;;11.02;100.00;101931.94;5063077;28;20037;-73
2022/10/03 04:00:14;;;;;;;27.38;3.90;;;;;;;10.97;100.00;101934.19;5064819;28;20400;-73
2022/10/03 04:02:58;;;;;;;26.45;4.05;;;;;;;10.92;100.00;101939.13;5057231;28;20098;-73
2022/10/03 04:05:56;;;;;;;48.42;4.97;;;;;;;11.03;100.00;101930.94;5049458;28;20123;-73
2022/10/03 04:09:08;;;;;;;36.28;5.40;;;;;;;11.07;100.00;101943.19;5059103;28;20028;-73
2022/10/03 04:12:08;;;;;;;31.35;3.20;;;;;;;11.12;100.00;101946.38;4996889;28;20022;-73
2022/10/03 04:14:55;;;;;;;45.20;5.97;;;;;;;11.18;100.00;101949.53;5003253;28;20044;-72
2022/10/03 04:21:07;;;;;;;32.40;4.53;;;;;;;11.07;100.00;101959.47;5074328;28;20032;-73
2022/10/03 04:23:51;;;;;;;32.40;3.45;;;;;;;10.98;100.00;101960.28;5070257;28;20476;-73
2022/10/03 04:26:36;;;;;;;39.90;4.95;;;;;;;10.90;100.00;101962.81;5083323;28;20495;-73
2022/10/03 04:29:07;;;;;;;40.47;4.53;;;;;;;10.79;100.00;101960.16;5080387;28;20028;-72
2022/10/03 04:31:45;;;;;;;40.38;4.22;;;;;;;10.74;100.00;101954.28;5076247;28;20028;-72
2022/10/03 04:34:17;;;;;;;24.42;3.28;;;;;;;10.76;100.00;101955.03;5056622;28;20017;-72
2022/10/03 04:37:05;;;;;;;39.15;4.97;;;;;;;10.87;100.00;101963.06;5058979;28;20028;-72
2022/10/03 04:39:52;;;;;;;56.25;5.05;;;;;;;10.93;100.00;101962.53;5064532;28;20017;-73
2022/10/03 04:43:06;;;;;;;46.00;4.75;;;;;;;10.90;100.00;101961.94;5063856;28;20063;-73
2022/10/03 04:45:44;;;;;;;42.05;4.28;;;;;;;10.89;100.00;101963.81;5040794;28;20071;-72
2022/10/03 04:48:12;;;;;;;27.08;3.55;;;;;;;10.97;100.00;101969.41;5074939;28;20084;-72
2022/10/03 04:51:00;;;;;;;36.67;4.15;;;;;;;10.92;100.00;101966.22;5056360;28;20115;-72
2022/10/03 04:53:55;;;;;;;33.88;3.95;;;;;;;10.74;100.00;101973.25;5046315;28;20081;-73
2022/10/03 04:56:53;;;;;;;44.70;4.80;;;;;;;10.71;100.00;101965.38;5071963;28;20112;-74
2022/10/03 04:59:37;;;;;;;44.15;6.28;;;;;;;10.79;100.00;101971.00;5046025;28;20078;-74
2022/10/03 05:02:36;;;;;;;36.05;4.65;;;;;;;10.72;100.00;101975.22;5064940;28;20035;-73
2022/10/03 05:05:26;;;;;;;45.38;5.70;;;;;;;10.83;100.00;101967.03;5065555;28;20075;-74
2022/10/03 05:08:30;;;;;;;45.05;5.03;;;;;;;10.83;100.00;101969.75;5058744;28;20477;-74
2022/10/03 05:11:06;;;;;;;45.95;4.70;;;;;;;10.91;100.00;101963.66;5063762;28;20025;-73
2022/10/03 05:13:48;;;;;;;48.67;4.60;;;;;;;10.86;100.00;101974.88;5075121;28;20028;-73
2022/10/03 05:16:30;;;;;;;44.00;5.38;;;;;;;10.76;100.00;101987.53;5057395;28;20016;-73
2022/10/03 05:19:02;;;;;;;;;;;;;;;10.83;100.00;101988.72;5059193;28;20024;-74
2022/10/03 05:21:44;;;;;;;31.92;3.97;;;;;;;10.76;100.00;101987.53;5079704;28;19913;-74
2022/10/03 05:24:25;;;;;;;41.90;5.80;;;;;;;10.74;100.00;101984.06;5064547;28;20054;-74
2022/10/03 05:27:11;;;;;;;46.20;5.18;;;;;;;10.81;100.00;101987.97;5078082;28;20037;-74
2022/10/03 05:29:58;;;;;;;37.50;4.72;;;;;;;10.85;100.00;101986.72;5085114;28;20032;-74
2022/10/03 05:32:44;;;;;;;38.67;4.93;;;;;;;10.89;100.00;101999.03;5054860;28;20032;-72
2022/10/03 05:35:18;;;;;;;51.25;5.32;;;;;;;10.82;100.00;101997.81;5067045;28;20051;-72
2022/10/03 05:38:12;;;;;;;44.47;5.47;;;;;;;10.77;100.00;102000.06;5077223;28;20031;-72
2022/10/03 05:40:41;;;;;;;44.35;5.05;;;;;;;10.86;100.00;101999.28;5074510;28;20020;-72
2022/10/03 05:43:35;;;;;;;34.60;5.40;;;;;;;10.84;100.00;102001.28;5059483;28;20035;-72
2022/10/03 05:46:33;;;;;;;43.55;4.95;;;;;;;10.95;100.00;102003.88;5058742;28;20029;-72
2022/10/03 05:49:15;;;;;;;46.03;5.53;;;;;;;11.06;100.00;102001.09;5024869;28;20516;-72
2022/10/03 05:51:54;;;;;;;40.55;5.60;;;;;;;10.91;100.00;102013.28;5055310;28;20029;-72
2022/10/03 05:54:48;;;;;;;37.92;4.72;;;;;;;11.03;100.00;102023.06;5054905;28;20013;-72
2022/10/03 05:57:34;;;;;;;54.90;5.68;;;;;;;10.99;100.00;102015.34;5073947;28;20032;-71
2022/10/03 06:00:07;;;;;;;36.85;4.60;;;;;;;11.07;100.00;102016.38;5071903;28;20024;-72
2022/10/03 06:03:04;;;;;;;41.63;5.22;;;;;;;10.95;100.00;102020.16;5036012;28;20025;-72
2022/10/03 06:05:48;;;;;;;48.03;5.13;;;;;;;11.11;100.00;102017.84;5035491;28;20075;-72
2022/10/03 06:08:41;;;;;;;38.80;5.40;;;;;;;11.09;100.00;102018.97;5049683;28;20048;-72
2022/10/03 06:11:25;;;;;;;36.30;4.93;;;;;;;11.23;100.00;102023.19;5070462;28;20020;-71
2022/10/03 06:14:23;;;;;;;44.13;4.65;;;;;;;11.23;100.00;102017.75;5055414;28;20027;-72
2022/10/03 06:17:01;;;;;;;49.42;6.55;;;;;;;11.20;100.00;102023.44;5073266;28;20020;-72
2022/10/03 06:19:38;;;;;;;61.55;5.82;;;;;;;11.13;100.00;102020.41;5058296;28;20081;-72
2022/10/03 06:22:28;;;;;;;43.13;4.93;;;;;;;11.28;100.00;102031.75;5058880;28;20032;-72
2022/10/03 06:25:22;;;;;;;37.60;4.72;;;;;;;11.41;100.00;102029.72;5056574;28;20012;-72
2022/10/03 06:28:24;;;;;;;45.80;6.22;;;;;;;11.60;100.00;102037.91;5035774;28;20033;-72
2022/10/03 06:31:21;;;;;;;40.78;4.22;;;;;;;11.68;100.00;102032.69;5045156;28;20025;-73
2022/10/03 06:34:05;;;;;;;49.58;5.95;;;;;;;11.61;100.00;102033.38;5087693;28;20024;-73
2022/10/03 06:37:14;;;;;;;58.97;6.13;;;;;;;11.75;100.00;102041.13;5075493;28;20484;-73
2022/10/03 06:40:10;;;;;;;56.95;7.03;;;;;;;11.76;100.00;102047.41;5045660;28;20032;-72
2022/10/03 06:42:53;;;;;;;47.90;6.13;;;;;;;11.85;100.00;102052.03;5072068;28;20448;-71
2022/10/03 06:45:22;;;;;;;38.67;6.28;;;;;;;11.75;100.00;102051.13;5071802;28;20025;-72
2022/10/03 06:47:59;;;;;;;37.17;5.13;;;;;;;11.90;100.00;102049.78;5075359;28;20038;-72
2022/10/03 06:50:29;;;;;;;45.90;5.30;;;;;;;12.06;100.00;102047.41;5074774;28;20073;-73
2022/10/03 06:53:30;;;;;;;49.67;6.68;;;;;;;12.23;100.00;102052.13;5075860;28;20063;-72
2022/10/03 06:56:22;;;;;;;33.13;4.78;;;;;;;12.24;100.00;102047.56;5064566;28;20162;-72
2022/10/03 06:59:20;;;;;;;56.47;6.80;;;;;;;12.28;100.00;102053.59;5064251;28;20033;-71
2022/10/03 07:02:30;;;;;;;42.58;4.93;;;;;;;12.28;100.00;102049.00;5054981;28;20024;-72
2022/10/03 07:05:21;;;;;;;46.70;5.07;;;;;;;12.35;100.00;102049.31;4966501;28;20311;-72
2022/10/03 07:08:20;;;;;;;35.47;4.88;;;;;;;12.36;100.00;102057.31;4955439;28;20097;-72
2022/10/03 07:11:19;;;;;;;40.10;4.65;;;;;;;12.26;100.00;102066.41;5037293;28;20039;-73
2022/10/03 07:14:08;;;;;;;47.72;5.03;;;;;;;12.22;100.00;102072.16;5054915;28;20105;-72
2022/10/03 07:17:18;;;;;;;36.15;5.70;;;;;;;12.29;100.00;102071.59;5054342;28;20025;-72
2022/10/03 07:20:10;;;;;;;43.95;5.55;;;;;;;12.22;100.00;102055.00;5040484;28;20032;-72
2022/10/03 07:23:00;;;;;;;31.20;4.15;;;;;;;12.40;100.00;102063.31;5054617;28;20548;-71
2022/10/03 07:25:46;;;;;;;30.95;4.63;;;;;;;12.55;99.85;102061.91;5054198;28;20032;-72
2022/10/03 07:28:21;;;;;;;41.65;5.30;;;;;;;12.48;100.00;102077.06;5071978;28;20024;-72
2022/10/03 07:31:01;;;;;;;37.55;4.90;;;;;;;12.65;99.68;102068.22;5053401;28;20024;-72
2022/10/03 07:33:50;;;;;;;27.58;4.57;;;;;;;12.77;99.47;102072.47;5035391;28;20076;-72
2022/10/03 07:39:51;;;;;;;34.90;5.22;;;;;;;13.09;97.93;102087.63;5067553;28;20025;-72
2022/10/03 07:42:24;;;;;;;34.17;5.43;;;;;;;13.16;97.17;102088.75;5071902;28;20028;-72
2022/10/03 07:45:08;;;;;;;31.42;3.65;;;;;;;12.96;98.66;102082.47;5070290;28;20550;-72
2022/10/03 07:48:02;;;;;;;31.38;3.75;;;;;;;12.90;98.92;102091.22;5070785;28;20477;-72
2022/10/03 07:50:51;;;;;;;38.58;4.78;;;;;;;13.07;98.18;102089.66;5070373;28;20104;-72
2022/10/03 07:54:05;;;;;;;38.92;4.60;;;;;;;13.23;98.21;102092.66;5034138;28;20378;-73
2022/10/03 07:57:02;;;;;;;28.50;4.13;;;;;;;13.29;98.38;102100.22;5053079;28;20032;-73
2022/10/03 07:59:43;;;;;;;29.20;4.30;;;;;;;13.33;98.09;102089.06;5071671;28;20234;-73
2022/10/03 08:02:31;;;;;;;25.25;3.80;;;;;;;13.28;98.01;102086.78;5070907;28;20024;-72
2022/10/03 08:05:15;;;;;;;38.63;5.30;;;;;;;13.38;97.82;102092.22;5075799;28;20024;-73
2022/10/03 08:07:44;;;;;;;32.92;4.38;;;;;;;13.46;97.58;102095.03;5070238;28;20032;-71
2022/10/03 08:10:30;;;;;;;18.83;3.45;;;;;;;13.54;97.39;102103.31;5071140;28;20025;-70
2022/10/03 08:13:33;;;;;;;32.05;4.38;;;;;;;13.56;96.78;102101.31;5075922;28;20016;-71
2022/10/03 08:16:18;;;;;;;25.95;4.88;;;;;;;13.62;96.59;102106.16;5057461;28;20031;-71
2022/10/03 08:19:12;;;;;;;22.30;3.65;;;;;;;13.94;96.59;102104.91;5057086;28;20028;-71
2022/10/03 08:24:57;;;;;;;26.50;4.57;;;;;;;14.03;94.69;102114.91;5103142;23;20056;-73
2022/10/03 08:28:39;;;;;;;23.38;3.75;;;;;;;14.27;94.03;102101.56;4926784;28;20036;-73
2022/10/03 08:31:45;;;;;;;19.77;3.90;;;;;;;14.46;93.70;102099.72;5065661;28;20044;-74
2022/10/03 08:34:49;;;;;;;27.80;4.10;;;;;;;14.63;93.23;102101.66;5049370;28;20033;-73
2022/10/03 08:38:00;;;;;;;24.65;3.92;;;;;;;14.45;94.03;102106.19;5044355;28;20029;-73
2022/10/03 08:45:09;;;;;;;;;;;;;;;;;;;;;
2022/10/03 08:52:27;;;;;;;29.10;3.88;;;;;;;15.18;91.59;102106.94;5021599;28;20123;-74
2022/10/03 08:55:44;;;;;;;42.03;4.97;;;;;;;15.18;90.62;102112.38;5034884;28;20103;-74
2022/10/03 08:58:43;;;;;;;30.13;4.80;;;;;;;15.35;90.01;102119.69;5031359;28;20025;-73
2022/10/03 09:01:20;;;;;;;29.00;4.47;;;;;;;15.02;90.19;102115.00;5036305;28;20024;-74
2022/10/03 09:04:23;;;;;;;29.42;4.18;;;;;;;15.18;89.96;102117.84;5044888;28;20028;-73
2022/10/03 09:07:19;;;;;;;30.13;5.10;;;;;;;15.28;89.86;102123.22;5035209;28;20128;-74
2022/10/03 09:10:15;;;;;;;28.08;3.05;;;;;;;15.35;89.85;102114.22;5036325;28;20506;-74
2022/10/03 09:12:50;;;;;;;26.67;4.45;;;;;;;15.42;88.93;102109.00;5035627;28;20025;-75
2022/10/03 09:15:53;;;;;;;24.92;4.95;;;;;;;15.24;90.02;102116.34;5036636;28;20017;-75
2022/10/03 09:18:45;;;;;;;27.00;4.18;;;;;;;15.18;89.34;102123.28;5050527;28;20079;-74
2022/10/03 09:21:32;;;;;;;25.17;4.10;;;;;;;15.18;89.77;102106.94;5028373;28;20044;-75
2022/10/03 09:24:25;;;;;;;22.65;4.07;;;;;;;15.48;89.08;102125.59;5036890;28;20017;-73
2022/10/03 09:27:11;;;;;;;24.55;4.03;;;;;;;15.23;89.54;102131.88;5011590;28;20053;-74
2022/10/03 09:30:06;;;;;;;26.92;4.95;;;;;;;15.27;89.16;102122.38;5030056;28;20072;-73
2022/10/03 09:32:56;;;;;;;32.33;4.07;;;;;;;14.88;90.87;102128.16;5051552;28;20438;-73
2022/10/03 09:35:44;;;;;;;23.50;3.92;;;;;;;15.06;91.15;102127.28;5047142;28;20032;-73
2022/10/03 09:38:21;;;;;;;27.85;3.97;;;;;;;15.31;90.48;102126.47;5031564;28;20028;-73
2022/10/03 09:41:22;;;;;;;34.95;5.93;;;;;;;15.26;89.86;102119.78;5033882;28;20039;-75
2022/10/03 09:44:29;;;;;;;30.17;4.63;;;;;;;15.03;90.55;102141.25;5010313;28;20037;-73
2022/10/03 09:47:26;;;;;;;24.23;4.60;;;;;;;14.96;91.01;102129.25;5026462;28;20030;-73
2022/10/03 09:50:18;;;;;;;24.73;3.63;;;;;;;15.08;91.78;102122.53;5044474;28;20028;-73
2022/10/03 09:53:11;;;;;;;28.73;4.35;;;;;;;15.39;90.25;102121.09;5040845;28;20024;-75
2022/10/03 09:55:55;;;;;;;32.83;4.68;;;;;;;15.83;88.68;102123.78;5039797;28;20028;-73
2022/10/03 09:58:38;;;;;;;23.02;3.92;;;;;;;15.98;88.80;102116.72;5035992;28;20025;-74
2022/10/03 10:01:29;;;;;;;25.83;3.55;;;;;;;16.15;86.45;102127.69;5035061;28;20115;-74
2022/10/03 10:04:44;;;;;;;36.53;4.30;;;;;;;16.26;85.54;102111.88;5036184;28;20159;-72
2022/10/03 10:07:39;;;;;;;22.30;4.07;;;;;;;15.99;86.80;102121.16;5028230;28;20033;-72
2022/10/03 10:10:23;;;;;;;;;;;;;;;16.26;86.37;102130.16;5031735;28;20032;-74
2022/10/03 10:13:14;;;;;;;25.45;3.78;;;;;;;16.54;85.49;102120.66;5035581;28;19952;-73
2022/10/03 10:16:09;;;;;;;30.13;4.55;;;;;;;16.33;85.83;102120.25;5043495;28;20027;-74
2022/10/03 10:19:19;;;;;;;19.33;4.70;;;;;;;16.37;86.37;102099.78;5030387;28;20029;-74
2022/10/03 10:21:57;;;;;;;21.80;3.58;;;;;;;15.86;87.70;102109.81;5034938;28;20060;-74
2022/10/03 10:24:48;;;;;;;28.40;4.35;;;;;;;16.28;87.20;102111.69;5042605;28;20029;-74
2022/10/03 10:27:35;;;;;;;23.57;4.37;;;;;;;16.59;84.15;102097.44;5034602;28;20028;-74
2022/10/03 10:30:27;;;;;;;21.00;3.58;;;;;;;16.08;85.57;102100.19;5052783;28;20282;-74
2022/10/03 10:33:27;;;;;;;22.40;3.53;;;;;;;15.88;88.16;102107.78;5050442;28;20025;-74
2022/10/03 10:36:11;;;;;;;22.70;3.80;;;;;;;15.71;91.31;102108.69;5028932;28;20124;-74
2022/10/03 10:39:15;;;;;;;31.92;4.45;;;;;;;15.61;91.60;102114.25;5045678;28;20039;-73
2022/10/03 10:42:04;;;;;;;32.25;4.25;;;;;;;15.62;92.76;102109.66;5046995;28;20024;-73
2022/10/03 10:44:52;;;;;;;27.52;3.72;;;;;;;15.85;88.94;102099.91;5048827;28;20027;-74
2022/10/03 10:47:52;;;;;;;24.98;5.00;;;;;;;16.07;87.55;102108.53;5044498;28;20029;-73
2022/10/03 10:51:07;;;;;;;17.92;3.38;;;;;;;16.22;84.99;102106.88;5035256;28;20017;-74
2022/10/03 10:54:10;;;;;;;14.90;3.33;;;;;;;16.34;82.81;102105.56;4985851;28;20025;-75
2022/10/03 10:56:57;;;;;;;14.35;2.40;;;;;;;16.60;83.19;102082.75;5030502;28;20134;-74
2022/10/03 10:59:52;;;;;;;17.45;2.67;;;;;;;16.36;82.85;102105.41;5034490;28;20028;-74
2022/10/03 11:02:57;;;;;;;19.00;3.65;;;;;;;16.09;85.02;102106.50;5034998;28;20023;-73
2022/10/03 11:05:47;;;;;;;18.58;3.25;;;;;;;15.93;88.50;102113.59;5034180;28;20031;-74
2022/10/03 11:08:32;;;;;;;22.23;3.65;;;;;;;15.91;90.12;102104.72;5026808;28;20045;-75
2022/10/03 11:11:31;;;;;;;15.80;3.17;;;;;;;15.72;89.26;102105.81;5033883;28;20040;-73
2022/10/03 11:14:16;;;;;;;15.95;3.15;;;;;;;15.71;88.94;102104.13;5034526;28;20479;-75
2022/10/03 11:16:53;;;;;;;13.00;3.25;;;;;;;15.87;88.28;102100.59;5032641;28;20020;-73
2022/10/03 11:19:40;;;;;;;19.38;3.03;;;;;;;15.99;87.61;102096.56;5032042;28;20059;-75
2022/10/03 11:22:12;;;;;;;14.75;3.15;;;;;;;16.30;87.51;102109.69;5033787;28;20040;-74
2022/10/03 11:24:56;;;;;;;;;;;;;;;16.28;86.67;102112.56;5052391;28;20025;-75
2022/10/03 11:27:40;;;;;;;15.15;3.45;;;;;;;16.41;85.72;102114.81;5031783;28;19939;-75
2022/10/03 11:30:17;;;;;;;23.60;3.42;;;;;;;16.07;85.79;102114.88;5034546;28;20032;-75
2022/10/03 11:32:49;;;;;;;19.25;2.97;;;;;;;16.07;87.22;102114.00;5033597;28;20029;-74
2022/10/03 11:35:23;;;;;;;24.88;4.30;;;;;;;16.04;86.15;102117.06;5039084;28;20112;-75
2022/10/03 11:38:07;;;;;;;17.52;2.78;;;;;;;16.29;85.89;102124.34;5032211;28;20041;-74
2022/10/03 11:41:05;;;;;;;16.10;3.35;;;;;;;15.72;86.87;102129.53;5037364;28;20024;-74
2022/10/03 11:44:14;;;;;;;13.63;2.78;;;;;;;15.67;86.28;102123.69;5015177;28;20029;-73
2022/10/03 11:47:07;;;;;;;15.95;3.35;;;;;;;15.75;85.51;102126.47;5035121;28;20049;-75
2022/10/03 11:49:52;;;;;;;9.85;2.47;;;;;;;15.61;86.78;102124.31;5025068;28;20025;-74
2022/10/03 11:52:33;;;;;;;17.50;2.80;;;;;;;15.77;86.73;102120.84;5031492;28;20052;-74
2022/10/03 11:55:23;;;;;;;15.80;2.40;;;;;;;15.78;87.16;102115.25;5036142;28;20028;-75
2022/10/03 11:58:19;;;;;;;14.63;2.95;;;;;;;15.88;87.24;102121.44;5033295;28;20079;-74
2022/10/03 12:00:58;;;;;;;14.23;2.75;;;;;;;16.16;86.60;102119.34;5051075;28;20111;-75
2022/10/03 12:03:28;;;;;;;22.20;2.72;;;;;;;16.80;84.94;102125.19;5034180;28;20024;-73
2022/10/03 12:09:38;;;;;;;17.75;3.33;;;;;;;16.63;84.30;102109.75;5043855;28;20024;-73
2022/10/03 12:12:20;;;;;;;16.20;2.90;;;;;;;16.60;84.91;102126.50;5031994;28;20021;-73
2022/10/03 12:14:49;;;;;;;;;;;;;;;16.35;86.07;102122.81;5035505;28;20024;-72
2022/10/03 12:17:30;;;;;;;16.67;3.30;;;;;;;16.24;86.34;102110.34;5034442;28;20002;-74
2022/10/03 12:20:17;;;;;;;27.15;4.20;;;;;;;16.25;86.40;102117.50;5048955;28;20047;-75
2022/10/03 12:22:56;;;;;;;19.20;3.58;;;;;;;16.33;86.68;102109.31;5033431;28;20043;-74
2022/10/03 12:25:36;;;;;;;21.80;4.10;;;;;;;15.91;86.68;102115.66;5035666;28;20432;-75
2022/10/03 12:28:11;;;;;;;26.02;4.40;;;;;;;15.90;87.06;102138.50;5032202;28;20037;-74
2022/10/03 12:30:44;;;;;;;26.15;3.25;;;;;;;15.86;88.27;102118.00;5030731;28;20025;-75
2022/10/03 12:33:38;;;;;;;22.10;3.97;;;;;;;16.07;87.64;102122.22;5036690;28;20057;-73
2022/10/03 12:36:14;;;;;;;18.20;3.10;;;;;;;16.42;86.70;102113.78;5035821;28;20032;-73
2022/10/03 12:38:58;;;;;;;19.05;3.80;;;;;;;16.33;87.05;102120.25;5037362;28;20147;-74
2022/10/03 12:41:42;;;;;;;10.40;2.55;;;;;;;16.08;87.61;102115.72;5037071;28;20048;-74
2022/10/03 12:44:30;;;;;;;19.92;3.58;;;;;;;16.13;87.17;102118.81;5033098;28;20029;-74
2022/10/03 12:47:39;;;;;;;17.70;3.22;;;;;;;16.21;87.20;102116.13;5044905;28;20039;-75
2022/10/03 12:50:22;;;;;;;18.05;3.65;;;;;;;16.24;87.41;102122.13;5038177;28;20021;-75
2022/10/03 12:53:16;;;;;;;25.35;3.30;;;;;;;16.29;86.12;102124.34;5039250;28;20028;-75
2022/10/03 12:56:00;;;;;;;29.02;3.38;;;;;;;16.45;86.01;102124.41;5040969;28;20057;-74
2022/10/03 12:59:00;;;;;;;15.98;4.25;;;;;;;16.37;86.39;102127.13;5053724;28;20031;-75
2022/10/03 13:01:51;;;;;;;17.40;3.08;;;;;;;16.24;87.15;102126.72;5031998;28;20029;-75
2022/10/03 13:05:06;;;;;;;20.98;3.85;;;;;;;16.19;87.39;102123.63;5031305;28;20028;-75
2022/10/03 13:07:51;;;;;;;17.95;2.97;;;;;;;16.37;87.10;102126.28;5038052;28;20048;-74
2022/10/03 13:10:32;;;;;;;16.45;3.17;;;;;;;16.15;86.78;102128.56;5039838;28;20027;-74
2022/10/03 13:13:18;;;;;;;18.70;3.47;;;;;;;15.96;86.72;102116.00;5039570;28;20024;-74
2022/10/03 13:16:04;;;;;;;18.42;3.53;;;;;;;15.97;88.35;102120.47;5036236;28;20025;-73
2022/10/03 13:18:46;;;;;;;21.17;3.10;;;;;;;15.91;90.46;102126.59;5043035;28;20029;-74
2022/10/03 13:21:19;;;;;;;21.67;3.22;;;;;;;15.84;90.33;102122.75;5054909;28;20035;-75